createdAt,value
2023-02-25T00:00:11.063Z,7.50
2023-02-25T00:03:15.533Z,7.30
2023-02-25T00:06:22.278Z,7.20
2023-02-25T00:09:25.332Z,7.20
2023-02-25T00:12:29.682Z,7.20
2023-02-25T00:15:32.609Z,7.30
2023-02-25T00:18:35.507Z,7.30
2023-02-25T00:21:40.188Z,7.40
2023-02-25T00:24:43.276Z,7.30
2023-02-25T00:27:46.184Z,7.40
2023-02-25T00:30:49.159Z,7.40
2023-02-25T00:33:53.115Z,7.40
2023-02-25T00:36:57.401Z,7.50
2023-02-25T00:40:00.540Z,7.50
2023-02-25T00:43:03.415Z,7.30
2023-02-25T00:46:06.874Z,7.40
2023-02-25T00:49:09.760Z,7.30
2023-02-25T00:52:14.584Z,7.20
2023-02-25T00:55:17.611Z,7.10
2023-02-25T00:58:20.446Z,7.20
2023-02-25T01:01:26.217Z,7.10
2023-02-25T01:04:29.117Z,7.10
2023-02-25T01:07:33.614Z,7.10
2023-02-25T01:10:36.488Z,6.90
2023-02-25T01:13:39.379Z,6.80
2023-02-25T01:16:44.872Z,6.60
2023-02-25T01:19:47.705Z,6.50
2023-02-25T01:22:51.906Z,6.40
2023-02-25T01:25:54.766Z,6.20
2023-02-25T01:28:57.653Z,6.20
2023-02-25T01:32:02.914Z,6.20
2023-02-25T01:35:06.508Z,6.20
2023-02-25T01:38:10.708Z,6.10
2023-02-25T01:41:13.554Z,6.10
2023-02-25T01:44:18.818Z,6.00
2023-02-25T01:47:22.965Z,5.90
2023-02-25T01:50:31.558Z,6.10
2023-02-25T01:53:41.511Z,5.90
2023-02-25T01:56:49.430Z,5.90
2023-02-25T01:59:54.663Z,5.90
2023-02-25T02:02:59.043Z,5.90
2023-02-25T02:06:08.072Z,5.60
2023-02-25T02:09:15.044Z,5.50
2023-02-25T02:12:17.914Z,5.40
2023-02-25T02:15:20.793Z,5.40
2023-02-25T02:18:24.212Z,5.40
2023-02-25T02:21:46.620Z,5.40
2023-02-25T02:25:28.577Z,5.30
2023-02-25T02:29:13.112Z,5.20
2023-02-25T02:32:27.484Z,5.20
2023-02-25T02:35:37.324Z,5.20
2023-02-25T02:38:50.719Z,5.30
2023-02-25T02:42:01.847Z,5.20
2023-02-25T02:45:20.891Z,5.20
2023-02-25T02:48:31.253Z,5.20
2023-02-25T02:51:39.012Z,5.20
2023-02-25T02:54:45.253Z,5.10
2023-02-25T02:57:48.561Z,4.90
2023-02-25T03:00:57.920Z,5.00
2023-02-25T03:04:05.934Z,4.90
2023-02-25T03:07:12.369Z,4.90
2023-02-25T03:10:20.403Z,4.90
2023-02-25T03:13:23.715Z,5.00
2023-02-25T03:16:32.811Z,4.90
2023-02-25T03:19:42.644Z,5.00
2023-02-25T03:22:48.706Z,4.90
2023-02-25T03:25:55.210Z,4.80
2023-02-25T03:28:58.696Z,4.80
2023-02-25T03:32:07.365Z,4.80
2023-02-25T03:35:14.232Z,4.80
2023-02-25T03:38:21.788Z,4.70
2023-02-25T03:41:29.631Z,4.70
2023-02-25T03:44:36.833Z,4.80
2023-02-25T03:47:40.467Z,4.90
2023-02-25T03:50:49.503Z,4.90
2023-02-25T03:53:52.844Z,4.80
2023-02-25T03:56:56.923Z,4.90
2023-02-25T03:59:59.761Z,4.80
2023-02-25T04:03:02.959Z,4.80
2023-02-25T04:06:07.414Z,4.80
2023-02-25T04:09:10.281Z,4.70
2023-02-25T04:12:13.487Z,4.70
2023-02-25T04:15:16.331Z,4.80
2023-02-25T04:18:19.245Z,4.80
2023-02-25T04:21:31.870Z,4.80
2023-02-25T04:24:35.028Z,4.60
2023-02-25T04:27:37.891Z,4.60
2023-02-25T04:30:40.836Z,4.60
2023-02-25T04:33:44.156Z,4.70
2023-02-25T04:36:49.063Z,4.80
2023-02-25T04:39:51.928Z,4.80
2023-02-25T04:42:54.843Z,4.60
2023-02-25T04:45:57.845Z,4.60
2023-02-25T04:49:00.765Z,4.60
2023-02-25T04:52:05.216Z,4.50
2023-02-25T04:55:09.997Z,4.60
2023-02-25T04:58:13.140Z,4.70
2023-02-25T05:01:16.308Z,4.60
2023-02-25T05:04:19.205Z,4.60
2023-02-25T05:07:23.426Z,4.60
2023-02-25T05:10:26.269Z,4.70
2023-02-25T05:13:29.552Z,4.80
2023-02-25T05:16:32.447Z,4.80
2023-02-25T05:19:35.350Z,4.90
2023-02-25T05:22:40.174Z,4.90
2023-02-25T05:25:43.060Z,4.80
2023-02-25T05:28:45.951Z,4.70
2023-02-25T05:31:49.741Z,4.80
2023-02-25T05:34:52.703Z,4.90
2023-02-25T05:37:56.875Z,5.00
2023-02-25T05:41:01.233Z,5.00
2023-02-25T05:44:04.095Z,5.00
2023-02-25T05:47:07.644Z,5.00
2023-02-25T05:50:11.920Z,5.00
2023-02-25T05:53:16.091Z,5.10
2023-02-25T05:56:22.475Z,5.10
2023-02-25T05:59:25.567Z,5.00
2023-02-25T06:02:28.574Z,5.10
2023-02-25T06:05:31.564Z,5.10
2023-02-25T06:08:36.795Z,5.00
2023-02-25T06:11:39.640Z,5.10
2023-02-25T06:14:42.500Z,5.10
2023-02-25T06:17:45.439Z,5.00
2023-02-25T06:20:48.367Z,5.10
2023-02-25T06:23:53.504Z,5.20
2023-02-25T06:26:56.358Z,5.20
2023-02-25T06:30:00.398Z,5.20
2023-02-25T06:33:03.542Z,5.30
2023-02-25T06:36:07.685Z,5.40
2023-02-25T06:39:12.512Z,5.40
2023-02-25T06:42:15.371Z,5.50
2023-02-25T06:45:18.507Z,5.50
2023-02-25T06:48:21.336Z,5.40
2023-02-25T06:51:25.782Z,5.40
2023-02-25T06:54:29.999Z,5.40
2023-02-25T06:57:32.915Z,5.40
2023-02-25T07:00:37.657Z,5.40
2023-02-25T07:03:40.802Z,5.30
2023-02-25T07:06:43.721Z,5.30
2023-02-25T07:09:47.972Z,5.30
2023-02-25T07:12:50.819Z,5.40
2023-02-25T07:15:53.710Z,5.40
2023-02-25T07:18:56.632Z,5.40
2023-02-25T07:21:59.527Z,5.40
2023-02-25T07:25:04.282Z,5.50
2023-02-25T07:28:07.150Z,5.60
2023-02-25T07:31:12.715Z,5.60
2023-02-25T07:34:15.973Z,5.50
2023-02-25T07:37:18.813Z,5.60
2023-02-25T07:40:23.019Z,5.60
2023-02-25T07:43:25.922Z,5.50
2023-02-25T07:46:29.238Z,5.40
2023-02-25T07:49:32.138Z,5.40
2023-02-25T07:52:36.666Z,5.30
2023-02-25T07:55:44.681Z,5.40
2023-02-25T07:58:47.680Z,5.50
2023-02-25T08:01:50.551Z,5.50
2023-02-25T08:04:53.538Z,5.50
2023-02-25T08:07:56.905Z,5.50
2023-02-25T08:11:05.263Z,5.30
2023-02-25T08:14:08.252Z,5.40
2023-02-25T08:17:11.127Z,5.50
2023-02-25T08:20:14.333Z,5.50
2023-02-25T08:23:17.232Z,5.50
2023-02-25T08:26:23.504Z,5.50
2023-02-25T08:29:26.376Z,5.50
2023-02-25T08:32:29.378Z,5.50
2023-02-25T08:35:32.401Z,5.60
2023-02-25T08:38:35.227Z,5.50
2023-02-25T08:41:39.590Z,5.50
2023-02-25T08:44:42.676Z,5.60
2023-02-25T08:47:45.608Z,5.50
2023-02-25T08:50:48.459Z,5.50
2023-02-25T08:53:52.249Z,5.30
2023-02-25T08:56:57.232Z,5.30
2023-02-25T09:00:00.612Z,5.30
2023-02-25T09:03:03.483Z,5.30
2023-02-25T09:06:06.835Z,5.30
2023-02-25T09:09:11.620Z,5.30
2023-02-25T09:12:15.825Z,5.50
2023-02-25T09:15:18.737Z,5.50
2023-02-25T09:18:21.575Z,5.50
2023-02-25T09:21:25.341Z,5.50
2023-02-25T09:24:29.994Z,5.50
2023-02-25T09:27:34.728Z,5.40
2023-02-25T09:30:37.569Z,5.50
2023-02-25T09:33:42.728Z,5.40
2023-02-25T09:36:45.641Z,5.70
2023-02-25T09:39:49.039Z,5.90
2023-02-25T09:43:07.421Z,6.00
2023-02-25T09:46:14.449Z,6.10
2023-02-25T09:49:26.905Z,6.10
2023-02-25T09:52:33.850Z,6.00
2023-02-25T09:55:39.846Z,6.00
2023-02-25T09:58:46.826Z,5.90
2023-02-25T10:01:56.777Z,5.70
2023-02-25T10:05:16.363Z,5.60
2023-02-25T10:08:25.474Z,5.60
2023-02-25T10:11:42.942Z,5.70
2023-02-25T10:15:05.975Z,5.90
2023-02-25T10:18:22.108Z,6.10
2023-02-25T10:21:39.374Z,6.20
2023-02-25T10:24:46.405Z,6.10
2023-02-25T10:27:55.096Z,6.10
2023-02-25T10:31:04.408Z,6.10
2023-02-25T10:34:20.888Z,6.20
2023-02-25T10:37:27.395Z,6.20
2023-02-25T10:40:30.333Z,6.10
2023-02-25T10:43:35.687Z,6.10
2023-02-25T10:46:43.549Z,6.20
2023-02-25T10:50:11.845Z,6.30
2023-02-25T10:53:17.108Z,6.30
2023-02-25T10:56:21.400Z,6.40
2023-02-25T10:59:30.803Z,6.30
2023-02-25T11:02:41.399Z,6.20
2023-02-25T11:05:44.897Z,6.30
2023-02-25T11:08:47.818Z,6.40
2023-02-25T11:11:55.117Z,6.40
2023-02-25T11:14:57.980Z,6.40
2023-02-25T11:18:07.210Z,6.30
2023-02-25T11:21:13.471Z,6.40
2023-02-25T11:24:18.483Z,6.50
2023-02-25T11:27:31.126Z,6.40
2023-02-25T11:30:37.556Z,6.00
2023-02-25T11:33:46.760Z,6.00
2023-02-25T11:36:51.215Z,6.10
2023-02-25T11:39:55.857Z,6.00
2023-02-25T11:43:04.667Z,6.30
2023-02-25T11:46:11.840Z,6.40
2023-02-25T11:49:21.815Z,6.70
2023-02-25T11:52:33.489Z,6.70
2023-02-25T11:55:45.516Z,6.80
2023-02-25T11:59:04.286Z,7.00
2023-02-25T12:02:24.895Z,7.40
2023-02-25T12:05:50.391Z,7.80
2023-02-25T12:09:29.190Z,8.20
2023-02-25T12:13:02.956Z,8.50
2023-02-25T12:16:28.500Z,8.80
2023-02-25T12:20:04.752Z,8.70
2023-02-25T12:23:43.766Z,8.70
2023-02-25T12:27:28.671Z,8.50
2023-02-25T12:31:08.064Z,8.20
2023-02-25T12:34:30.316Z,8.00
2023-02-25T12:37:47.041Z,7.60
2023-02-25T12:41:09.878Z,7.50
2023-02-25T12:44:38.758Z,7.50
2023-02-25T12:47:53.463Z,7.40
2023-02-25T12:51:17.577Z,7.40
2023-02-25T12:54:34.625Z,7.50
2023-02-25T12:57:49.915Z,7.50
2023-02-25T13:01:22.324Z,7.80
2023-02-25T13:04:58.167Z,8.00
2023-02-25T13:08:45.479Z,8.40
2023-02-25T13:12:13.409Z,8.80
2023-02-25T13:15:23.412Z,9.10
2023-02-25T13:18:36.763Z,9.40
2023-02-25T13:21:56.204Z,9.70
2023-02-25T13:25:11.616Z,10.10
2023-02-25T13:28:25.845Z,10.00
2023-02-25T13:31:41.123Z,10.40
2023-02-25T13:34:49.788Z,10.40
2023-02-25T13:38:03.498Z,10.20
2023-02-25T13:41:36.654Z,10.10
2023-02-25T13:44:56.355Z,9.70
2023-02-25T13:48:22.898Z,9.30
2023-02-25T13:52:14.676Z,9.00
2023-02-25T13:55:46.350Z,9.00
2023-02-25T13:59:18.103Z,9.00
2023-02-25T14:02:57.289Z,8.90
2023-02-25T14:06:19.364Z,8.60
2023-02-25T14:09:41.308Z,8.50
2023-02-25T14:12:54.774Z,8.30
2023-02-25T14:16:08.219Z,8.20
2023-02-25T14:19:31.420Z,8.30
2023-02-25T14:22:41.295Z,8.30
2023-02-25T14:25:58.084Z,7.90
2023-02-25T14:29:18.672Z,7.90
2023-02-25T14:32:33.228Z,7.80
2023-02-25T14:35:56.433Z,7.90
2023-02-25T14:39:14.831Z,8.00
2023-02-25T14:42:39.444Z,8.00
2023-02-25T14:45:48.201Z,7.90
2023-02-25T14:49:00.403Z,7.70
2023-02-25T14:52:27.258Z,7.70
2023-02-25T14:55:43.816Z,7.70
2023-02-25T14:59:24.175Z,7.40
2023-02-25T15:02:51.198Z,7.50
2023-02-25T15:06:11.229Z,7.50
2023-02-25T15:09:56.872Z,7.70
2023-02-25T15:13:26.861Z,7.70
2023-02-25T15:17:20.704Z,7.50
2023-02-25T15:20:41.927Z,7.50
2023-02-25T15:23:52.270Z,7.40
2023-02-25T15:26:56.659Z,7.40
2023-02-25T15:30:02.782Z,7.30
2023-02-25T15:33:23.744Z,7.30
2023-02-25T15:36:41.775Z,7.40
2023-02-25T15:39:50.279Z,7.30
2023-02-25T15:42:55.183Z,7.00
2023-02-25T15:46:44.435Z,7.10
2023-02-25T15:49:48.800Z,7.20
2023-02-25T15:52:57.710Z,7.30
2023-02-25T15:56:25.313Z,7.40
2023-02-25T15:59:46.625Z,7.40
2023-02-25T16:02:58.502Z,7.20
2023-02-25T16:06:06.020Z,7.10
2023-02-25T16:09:11.411Z,6.80
2023-02-25T16:12:16.376Z,6.80
2023-02-25T16:15:26.331Z,6.80
2023-02-25T16:18:35.319Z,6.90
2023-02-25T16:21:42.033Z,6.90
2023-02-25T16:24:49.115Z,6.90
2023-02-25T16:28:00.182Z,6.90
2023-02-25T16:31:12.013Z,7.00
2023-02-25T16:34:22.831Z,6.90
2023-02-25T16:37:31.594Z,6.80
2023-02-25T16:40:39.003Z,6.70
2023-02-25T16:43:44.544Z,6.70
2023-02-25T16:46:51.930Z,6.70
2023-02-25T16:49:59.200Z,6.80
2023-02-25T16:53:04.358Z,6.80
2023-02-25T16:56:13.382Z,6.80
2023-02-25T16:59:19.887Z,6.90
2023-02-25T17:02:24.899Z,6.90
2023-02-25T17:05:31.051Z,6.80
2023-02-25T17:08:34.091Z,6.90
2023-02-25T17:11:36.988Z,6.90
2023-02-25T17:14:39.876Z,6.90
2023-02-25T17:17:45.320Z,6.90
2023-02-25T17:20:50.001Z,6.90
2023-02-25T17:23:53.609Z,6.90
2023-02-25T17:26:56.727Z,6.80
2023-02-25T17:29:59.853Z,6.70
2023-02-25T17:33:02.937Z,6.80
2023-02-25T17:36:14.003Z,6.70
2023-02-25T17:39:19.141Z,6.50
2023-02-25T17:42:30.378Z,6.40
2023-02-25T17:45:44.336Z,6.30
2023-02-25T17:48:52.943Z,6.30
2023-02-25T17:52:00.586Z,6.40
2023-02-25T17:55:06.196Z,6.50
2023-02-25T17:58:24.023Z,6.40
2023-02-25T18:01:30.914Z,6.40
2023-02-25T18:04:36.380Z,6.40
2023-02-25T18:07:42.341Z,6.40
2023-02-25T18:10:55.059Z,6.30
2023-02-25T18:13:58.444Z,6.30
2023-02-25T18:17:02.192Z,6.20
2023-02-25T18:20:07.269Z,6.30
2023-02-25T18:23:22.033Z,6.30
2023-02-25T18:26:26.670Z,6.40
2023-02-25T18:29:29.776Z,6.30
2023-02-25T18:32:32.645Z,6.30
2023-02-25T18:35:35.596Z,6.30
2023-02-25T18:38:41.702Z,6.20
2023-02-25T18:41:44.555Z,6.10
2023-02-25T18:44:48.491Z,6.10
2023-02-25T18:47:52.408Z,6.10
2023-02-25T18:50:58.454Z,5.90
2023-02-25T18:54:02.712Z,5.90
2023-02-25T18:57:12.279Z,5.90
2023-02-25T19:00:17.571Z,5.90
2023-02-25T19:03:27.204Z,5.90
2023-02-25T19:06:31.983Z,5.90
2023-02-25T19:09:36.249Z,5.60
2023-02-25T19:12:39.150Z,5.70
2023-02-25T19:15:42.050Z,5.70
2023-02-25T19:18:47.112Z,5.70
2023-02-25T19:21:50.011Z,5.70
2023-02-25T19:24:54.271Z,5.80
2023-02-25T19:27:58.069Z,5.80
2023-02-25T19:31:01.127Z,5.70
2023-02-25T19:34:04.341Z,5.70
2023-02-25T19:37:07.507Z,5.60
2023-02-25T19:40:14.569Z,5.50
2023-02-25T19:43:18.860Z,5.50
2023-02-25T19:46:21.786Z,5.40
2023-02-25T19:49:24.835Z,5.40
2023-02-25T19:52:27.770Z,5.40
2023-02-25T19:55:33.333Z,5.40
2023-02-25T19:58:36.244Z,5.40
2023-02-25T20:01:39.564Z,5.40
2023-02-25T20:04:43.060Z,5.20
2023-02-25T20:07:45.903Z,5.40
2023-02-25T20:10:50.114Z,5.30
2023-02-25T20:13:53.329Z,5.30
2023-02-25T20:16:57.053Z,5.10
2023-02-25T20:19:59.908Z,5.20
2023-02-25T20:23:02.781Z,5.20
2023-02-25T20:26:09.081Z,5.20
2023-02-25T20:29:12.144Z,5.10
2023-02-25T20:32:15.183Z,5.10
2023-02-25T20:35:21.290Z,5.00
2023-02-25T20:38:27.941Z,4.70
2023-02-25T20:41:32.461Z,4.60
2023-02-25T20:44:35.548Z,4.70
2023-02-25T20:47:38.708Z,4.60
2023-02-25T20:50:42.189Z,4.60
2023-02-25T20:53:45.726Z,4.80
2023-02-25T20:56:50.680Z,4.80
2023-02-25T20:59:55.018Z,4.80
2023-02-25T21:02:57.937Z,5.00
2023-02-25T21:06:00.938Z,5.00
2023-02-25T21:09:05.324Z,5.00
2023-02-25T21:12:10.363Z,4.90
2023-02-25T21:15:13.431Z,5.00
2023-02-25T21:18:16.568Z,5.10
2023-02-25T21:21:21.407Z,5.00
2023-02-25T21:24:24.321Z,5.10
2023-02-25T21:27:29.204Z,5.10
2023-02-25T21:30:32.164Z,5.00
2023-02-25T21:33:35.582Z,5.00
2023-02-25T21:36:38.464Z,4.90
2023-02-25T21:39:42.011Z,5.00
2023-02-25T21:42:46.209Z,4.90
2023-02-25T21:45:55.909Z,4.80
2023-02-25T21:48:59.517Z,4.80
2023-02-25T21:52:02.618Z,4.80
2023-02-25T21:55:06.237Z,4.80
2023-02-25T21:58:10.651Z,4.70
2023-02-25T22:01:15.237Z,4.60
2023-02-25T22:04:18.548Z,4.70
2023-02-25T22:07:21.919Z,4.70
2023-02-25T22:10:24.876Z,4.70
2023-02-25T22:13:33.552Z,4.70
2023-02-25T22:16:37.978Z,4.70
2023-02-25T22:19:40.819Z,4.70
2023-02-25T22:22:43.729Z,4.70
2023-02-25T22:25:46.581Z,4.70
2023-02-25T22:28:54.699Z,4.70
2023-02-25T22:31:57.641Z,4.70
2023-02-25T22:35:00.595Z,4.70
2023-02-25T22:38:03.450Z,4.80
2023-02-25T22:41:07.501Z,4.80
2023-02-25T22:44:11.770Z,4.90
2023-02-25T22:47:14.625Z,4.80
2023-02-25T22:50:17.889Z,4.70
2023-02-25T22:53:20.760Z,4.70
2023-02-25T22:56:24.902Z,4.70
2023-02-25T22:59:29.354Z,4.80
2023-02-25T23:02:32.229Z,4.60
2023-02-25T23:05:35.786Z,4.60
2023-02-25T23:08:39.026Z,4.60
2023-02-25T23:11:43.732Z,4.60
2023-02-25T23:14:47.914Z,4.60
2023-02-25T23:17:50.960Z,4.60
2023-02-25T23:20:53.955Z,4.50
2023-02-25T23:23:58.459Z,4.40
2023-02-25T23:27:01.444Z,4.30
2023-02-25T23:30:07.012Z,4.30
2023-02-25T23:33:12.375Z,4.40
2023-02-25T23:36:15.807Z,4.40
2023-02-25T23:39:18.778Z,4.40
2023-02-25T23:42:21.653Z,4.40
2023-02-25T23:45:25.860Z,4.40
2023-02-25T23:48:28.737Z,4.20
2023-02-25T23:51:32.068Z,4.30
2023-02-25T23:54:34.948Z,4.40
2023-02-25T23:57:37.895Z,4.40
